createdAt,value
2023-11-16T00:01:03.187Z,5.77
2023-11-16T00:03:30.805Z,3.03
2023-11-16T00:05:58.526Z,4.70
2023-11-16T00:08:26.250Z,3.77
2023-11-16T00:10:55.653Z,5.60
2023-11-16T00:13:23.276Z,3.50
2023-11-16T00:15:51.343Z,2.27
2023-11-16T00:18:19.363Z,2.17
2023-11-16T00:20:47.218Z,4.03
2023-11-16T00:23:15.124Z,5.83
2023-11-16T00:25:42.707Z,2.47
2023-11-16T00:28:10.287Z,2.83
2023-11-16T00:30:37.989Z,4.53
2023-11-16T00:33:05.911Z,3.93
2023-11-16T00:35:33.671Z,3.33
2023-11-16T00:38:01.260Z,2.17
2023-11-16T00:40:33.466Z,6.70
2023-11-16T00:43:01.194Z,2.43
2023-11-16T00:45:28.870Z,4.33
2023-11-16T00:47:56.627Z,5.97
2023-11-16T00:50:24.282Z,4.30
2023-11-16T00:52:51.894Z,5.23
2023-11-16T00:55:19.491Z,5.23
2023-11-16T00:57:49.065Z,4.17
2023-11-16T01:00:17.528Z,4.73
2023-11-16T01:02:50.346Z,3.23
2023-11-16T01:05:18.981Z,4.78
2023-11-16T01:07:46.722Z,4.30
2023-11-16T01:10:18.925Z,4.20
2023-11-16T01:12:46.604Z,3.87
2023-11-16T01:15:15.515Z,5.17
2023-11-16T01:17:46.436Z,4.27
2023-11-16T01:20:19.904Z,1.50
2023-11-16T01:23:10.898Z,3.65
2023-11-16T01:25:44.513Z,2.60
2023-11-16T01:28:12.401Z,3.80
2023-11-16T01:30:40.118Z,2.77
2023-11-16T01:33:09.485Z,4.67
2023-11-16T01:35:43.705Z,2.53
2023-11-16T01:38:13.297Z,4.20
2023-11-16T01:40:41.860Z,2.37
2023-11-16T01:43:10.835Z,6.50
2023-11-16T01:45:38.869Z,4.00
2023-11-16T01:48:09.122Z,2.77
2023-11-16T01:50:40.472Z,4.33
2023-11-16T01:53:14.462Z,3.07
2023-11-16T01:55:46.091Z,4.67
2023-11-16T01:58:15.731Z,3.10
2023-11-16T02:00:45.141Z,4.93
2023-11-16T02:03:13.010Z,10.53
2023-11-16T02:05:42.083Z,8.67
2023-11-16T02:08:12.634Z,6.07
2023-11-16T02:10:42.336Z,7.67
2023-11-16T02:13:27.605Z,6.77
2023-11-16T02:15:57.119Z,6.00
2023-11-16T02:18:26.701Z,5.03
2023-11-16T02:20:56.430Z,3.73
2023-11-16T02:23:25.562Z,5.67
2023-11-16T02:25:57.722Z,5.27
2023-11-16T02:28:25.776Z,5.37
2023-11-16T02:30:53.772Z,3.97
2023-11-16T02:33:21.577Z,2.23
2023-11-16T02:35:49.847Z,2.53
2023-11-16T02:38:18.547Z,3.33
2023-11-16T02:40:46.383Z,6.83
2023-11-16T02:43:14.437Z,6.27
2023-11-16T02:45:42.851Z,6.10
2023-11-16T02:48:10.655Z,4.63
2023-11-16T02:50:38.382Z,2.93
2023-11-16T02:53:06.161Z,3.20
2023-11-16T02:55:35.779Z,2.57
2023-11-16T02:58:03.387Z,4.90
2023-11-16T03:00:33.160Z,4.30
2023-11-16T03:03:03.776Z,5.77
2023-11-16T03:05:34.122Z,5.03
2023-11-16T03:08:01.856Z,3.27
2023-11-16T03:10:30.216Z,4.33
2023-11-16T03:12:57.970Z,3.33
2023-11-16T03:15:25.672Z,4.60
2023-11-16T03:17:53.382Z,5.90
2023-11-16T03:20:22.099Z,2.40
2023-11-16T03:22:49.675Z,4.10
2023-11-16T03:25:17.328Z,4.63
2023-11-16T03:27:45.278Z,4.93
2023-11-16T03:30:17.401Z,4.33
2023-11-16T03:32:46.869Z,2.53
2023-11-16T03:35:16.558Z,2.87
2023-11-16T03:37:44.773Z,4.10
2023-11-16T03:40:13.661Z,3.20
2023-11-16T03:42:41.311Z,3.80
2023-11-16T03:45:09.516Z,3.20
2023-11-16T03:47:37.175Z,2.30
2023-11-16T03:50:05.502Z,2.23
2023-11-16T03:52:33.127Z,2.80
2023-11-16T03:55:00.762Z,2.67
2023-11-16T03:57:28.432Z,3.23
2023-11-16T03:59:56.068Z,3.67
2023-11-16T04:02:23.689Z,2.40
2023-11-16T04:04:51.263Z,3.83
2023-11-16T04:07:18.937Z,3.07
2023-11-16T04:09:46.789Z,3.20
2023-11-16T04:12:14.413Z,2.63
2023-11-16T04:14:42.234Z,1.90
2023-11-16T04:17:14.607Z,3.00
2023-11-16T04:19:43.095Z,3.47
2023-11-16T04:22:11.620Z,4.43
2023-11-16T04:25:12.545Z,2.53
2023-11-16T04:27:40.950Z,3.33
2023-11-16T04:30:09.132Z,1.83
2023-11-16T04:32:36.765Z,2.53
2023-11-16T04:35:09.349Z,3.40
2023-11-16T04:37:39.889Z,4.63
2023-11-16T04:40:14.900Z,1.87
2023-11-16T04:42:43.902Z,3.37
2023-11-16T04:45:13.521Z,1.53
2023-11-16T04:47:46.091Z,5.27
2023-11-16T04:50:18.468Z,2.13
2023-11-16T04:52:47.042Z,3.27
2023-11-16T04:55:16.427Z,3.53
2023-11-16T04:57:44.514Z,2.90
2023-11-16T05:00:14.933Z,3.73
2023-11-16T05:02:44.209Z,5.23
2023-11-16T05:05:11.924Z,5.17
2023-11-16T05:07:39.503Z,2.37
2023-11-16T05:10:11.247Z,5.07
2023-11-16T05:12:42.680Z,2.43
2023-11-16T05:15:12.162Z,2.90
2023-11-16T05:17:40.411Z,2.57
2023-11-16T05:20:09.175Z,2.10
2023-11-16T05:22:36.879Z,6.47
2023-11-16T05:25:07.176Z,4.00
2023-11-16T05:27:35.542Z,5.37
2023-11-16T05:30:03.566Z,4.90
2023-11-16T05:32:31.175Z,4.07
2023-11-16T05:34:58.741Z,4.30
2023-11-16T05:37:26.333Z,6.73
2023-11-16T05:39:53.910Z,4.63
2023-11-16T05:42:21.494Z,5.43
2023-11-16T05:44:49.545Z,5.10
2023-11-16T05:47:17.153Z,4.17
2023-11-16T05:49:44.716Z,6.87
2023-11-16T05:52:12.655Z,3.60
2023-11-16T05:54:40.311Z,3.20
2023-11-16T05:57:07.902Z,4.23
2023-11-16T05:59:35.506Z,5.07
2023-11-16T06:02:03.115Z,4.43
2023-11-16T06:04:30.758Z,3.90
2023-11-16T06:06:58.352Z,5.83
2023-11-16T06:09:25.953Z,5.77
2023-11-16T06:11:53.806Z,4.57
2023-11-16T06:14:30.663Z,4.93
2023-11-16T06:17:06.064Z,5.75
2023-11-16T06:19:33.676Z,3.13
2023-11-16T06:24:43.702Z,3.67
2023-11-16T06:27:11.762Z,2.30
2023-11-16T06:29:39.317Z,2.93
2023-11-16T06:32:08.886Z,5.53
2023-11-16T06:34:36.459Z,3.17
2023-11-16T06:37:05.898Z,8.80
2023-11-16T06:39:34.218Z,8.03
2023-11-16T06:42:01.975Z,6.30
2023-11-16T06:44:29.667Z,8.13
2023-11-16T06:46:58.342Z,7.47
2023-11-16T06:49:28.852Z,6.10
2023-11-16T06:51:56.526Z,6.80
2023-11-16T06:54:28.088Z,3.70
2023-11-16T06:56:56.826Z,4.77
2023-11-16T06:59:25.842Z,5.20
2023-11-16T07:01:53.678Z,5.13
2023-11-16T07:04:22.285Z,4.83
2023-11-16T07:06:50.352Z,9.23
2023-11-16T07:09:18.849Z,6.43
2023-11-16T07:11:48.740Z,5.47
2023-11-16T07:14:17.908Z,6.03
2023-11-16T07:16:45.573Z,4.77
2023-11-16T07:19:17.661Z,7.57
2023-11-16T07:21:45.330Z,6.20
2023-11-16T07:24:13.090Z,5.10
2023-11-16T07:26:41.316Z,3.23
2023-11-16T07:29:09.630Z,2.57
2023-11-16T07:31:38.805Z,5.77
2023-11-16T07:34:06.411Z,3.00
2023-11-16T07:36:34.178Z,2.87
2023-11-16T07:39:01.801Z,2.73
2023-11-16T07:41:32.230Z,4.00
2023-11-16T07:43:59.846Z,4.87
2023-11-16T07:46:27.743Z,3.43
2023-11-16T07:48:55.421Z,3.43
2023-11-16T07:51:23.206Z,4.27
2023-11-16T07:53:56.286Z,4.10
2023-11-16T07:56:25.099Z,3.70
2023-11-16T07:58:53.805Z,5.77
2023-11-16T08:04:12.533Z,3.10
2023-11-16T08:06:42.066Z,5.50
2023-11-16T08:09:10.809Z,4.60
2023-11-16T08:11:38.406Z,3.20
2023-11-16T08:14:08.001Z,3.57
2023-11-16T08:16:35.794Z,8.77
2023-11-16T08:19:03.470Z,7.53
2023-11-16T08:21:31.396Z,7.47
2023-11-16T08:23:59.192Z,10.90
2023-11-16T08:26:26.941Z,3.73
2023-11-16T08:28:54.534Z,2.93
2023-11-16T08:31:22.165Z,4.57
2023-11-16T08:33:49.898Z,2.83
2023-11-16T08:36:18.576Z,6.80
2023-11-16T08:38:47.855Z,4.70
2023-11-16T08:41:16.622Z,4.87
2023-11-16T08:43:48.731Z,5.40
2023-11-16T08:46:22.592Z,6.87
2023-11-16T08:48:52.562Z,3.43
2023-11-16T08:51:24.493Z,4.30
2023-11-16T08:53:57.579Z,3.70
2023-11-16T08:56:35.451Z,5.20
2023-11-16T08:59:09.605Z,7.33
2023-11-16T09:01:39.215Z,5.70
2023-11-16T09:04:10.589Z,4.47
2023-11-16T09:06:38.521Z,6.67
2023-11-16T09:09:32.298Z,4.30
2023-11-16T09:12:04.507Z,2.50
2023-11-16T09:14:35.446Z,4.13
2023-11-16T09:17:12.656Z,4.03
2023-11-16T09:19:42.133Z,4.60
2023-11-16T09:22:10.997Z,6.50
2023-11-16T09:24:40.363Z,6.17
2023-11-16T09:27:08.176Z,4.50
2023-11-16T09:29:39.943Z,2.80
2023-11-16T09:32:11.513Z,2.93
2023-11-16T09:34:39.314Z,5.57
2023-11-16T09:37:08.211Z,4.27
2023-11-16T09:39:35.959Z,3.87
2023-11-16T09:42:08.871Z,6.30
2023-11-16T09:44:40.605Z,5.23
2023-11-16T09:47:26.867Z,5.77
2023-11-16T09:49:57.516Z,3.77
2023-11-16T09:52:27.959Z,4.87
2023-11-16T09:55:01.918Z,6.00
2023-11-16T09:57:39.180Z,4.60
2023-11-16T10:00:17.034Z,9.03
2023-11-16T10:02:48.047Z,4.63
2023-11-16T10:05:23.532Z,4.93
2023-11-16T10:07:54.451Z,6.03
2023-11-16T10:10:22.259Z,4.73
2023-11-16T10:12:51.129Z,11.13
2023-11-16T10:15:21.703Z,7.30
2023-11-16T10:17:50.043Z,4.90
2023-11-16T10:20:19.076Z,7.10
2023-11-16T10:22:48.111Z,3.03
2023-11-16T10:25:16.594Z,3.93
2023-11-16T10:27:44.926Z,9.30
2023-11-16T10:30:17.363Z,5.20
2023-11-16T10:32:48.388Z,4.87
2023-11-16T10:35:18.909Z,7.67
2023-11-16T10:37:46.727Z,6.03
2023-11-16T10:40:14.426Z,6.40
2023-11-16T10:42:46.540Z,6.67
2023-11-16T10:45:18.166Z,7.80
2023-11-16T10:47:46.952Z,6.57
2023-11-16T10:50:16.921Z,5.07
2023-11-16T10:52:46.412Z,5.17
2023-11-16T10:55:23.320Z,4.20
2023-11-16T10:58:06.972Z,4.37
2023-11-16T11:00:38.998Z,4.33
2023-11-16T11:03:08.501Z,4.27
2023-11-16T11:05:38.763Z,8.77
2023-11-16T11:08:10.114Z,7.93
2023-11-16T11:10:42.480Z,5.73
2023-11-16T11:13:11.747Z,7.97
2023-11-16T11:15:41.280Z,9.23
2023-11-16T11:18:09.937Z,7.07
2023-11-16T11:20:41.486Z,5.40
2023-11-16T11:23:15.101Z,6.27
2023-11-16T11:25:43.528Z,9.88
2023-11-16T11:28:13.598Z,6.27
2023-11-16T11:31:01.579Z,8.30
2023-11-16T11:33:46.494Z,7.63
2023-11-16T11:36:21.803Z,8.20
2023-11-16T11:38:54.659Z,8.20
2023-11-16T11:41:24.245Z,9.73
2023-11-16T11:43:51.906Z,6.83
2023-11-16T11:46:20.096Z,6.90
2023-11-16T11:48:51.903Z,4.00
2023-11-16T11:51:20.812Z,4.47
2023-11-16T11:53:49.775Z,8.10
2023-11-16T11:56:17.939Z,7.07
2023-11-16T11:58:45.537Z,8.80
2023-11-16T12:01:13.394Z,6.27
2023-11-16T12:04:06.068Z,5.57
2023-11-16T12:06:38.062Z,4.10
2023-11-16T12:09:07.501Z,3.90
2023-11-16T12:11:36.090Z,3.23
2023-11-16T12:14:04.611Z,4.67
2023-11-16T12:16:32.379Z,4.43
2023-11-16T12:19:00.063Z,2.87
2023-11-16T12:21:27.866Z,5.63
2023-11-16T12:23:56.628Z,10.17
2023-11-16T12:26:32.738Z,7.40
2023-11-16T12:29:00.343Z,9.73
2023-11-16T12:31:28.532Z,12.98
2023-11-16T12:33:57.312Z,13.47
2023-11-16T12:36:26.924Z,9.70
2023-11-16T12:38:54.613Z,13.97
2023-11-16T12:41:25.648Z,15.90
2023-11-16T12:43:54.275Z,20.03
2023-11-16T12:46:24.667Z,11.27
2023-11-16T12:48:53.160Z,9.67
2023-11-16T12:51:21.906Z,8.83
2023-11-16T12:53:49.762Z,30.23
2023-11-16T12:56:18.511Z,23.53
2023-11-16T12:58:47.063Z,10.90
2023-11-16T13:01:16.642Z,11.13
2023-11-16T13:03:50.229Z,10.80
2023-11-16T13:06:21.137Z,8.87
2023-11-16T13:08:50.211Z,10.00
2023-11-16T13:11:18.350Z,9.20
2023-11-16T13:13:46.249Z,8.60
2023-11-16T13:16:16.035Z,12.30
2023-11-16T13:18:46.058Z,8.83
2023-11-16T13:21:18.848Z,11.43
2023-11-16T13:23:48.442Z,10.13
2023-11-16T13:26:16.122Z,9.97
2023-11-16T13:28:45.953Z,10.57
2023-11-16T13:31:15.753Z,11.07
2023-11-16T13:33:53.552Z,8.70
2023-11-16T13:36:21.453Z,12.20
2023-11-16T13:38:54.827Z,11.37
2023-11-16T13:41:24.105Z,12.15
2023-11-16T13:43:51.782Z,8.10
2023-11-16T13:46:19.567Z,8.80
2023-11-16T13:48:48.056Z,6.80
2023-11-16T13:51:15.626Z,8.97
2023-11-16T13:53:43.301Z,6.93
2023-11-16T13:56:11.893Z,11.53
2023-11-16T13:58:40.837Z,9.60
2023-11-16T14:01:10.193Z,7.33
2023-11-16T14:03:38.131Z,6.47
2023-11-16T14:06:07.024Z,12.67
2023-11-16T14:08:34.845Z,7.70
2023-11-16T14:11:03.584Z,6.80
2023-11-16T14:13:31.172Z,7.60
2023-11-16T14:16:04.913Z,5.47
2023-11-16T14:18:34.651Z,7.10
2023-11-16T14:21:06.859Z,8.13
2023-11-16T14:23:37.189Z,8.80
2023-11-16T14:26:09.668Z,9.10
2023-11-16T14:28:37.340Z,6.30
2023-11-16T14:31:05.607Z,5.83
2023-11-16T14:33:33.317Z,10.07
2023-11-16T14:36:01.018Z,5.57
2023-11-16T14:38:28.617Z,7.30
2023-11-16T14:40:56.224Z,6.43
2023-11-16T14:43:23.794Z,11.97
2023-11-16T14:45:51.733Z,20.57
2023-11-16T14:48:19.639Z,14.37
2023-11-16T14:50:51.119Z,21.70
2023-11-16T14:53:22.337Z,25.67
2023-11-16T14:55:50.944Z,13.83
2023-11-16T14:58:20.795Z,7.40
2023-11-16T15:00:48.438Z,9.90
2023-11-16T15:03:16.201Z,8.03
2023-11-16T15:05:43.855Z,7.43
2023-11-16T15:08:11.408Z,6.13
2023-11-16T15:10:38.991Z,5.90
2023-11-16T15:13:07.802Z,13.30
2023-11-16T15:15:35.856Z,9.83
2023-11-16T15:18:04.850Z,9.70
2023-11-16T15:20:35.959Z,8.03
2023-11-16T15:23:03.596Z,11.43
2023-11-16T15:25:31.234Z,9.30
2023-11-16T15:27:59.177Z,11.33
2023-11-16T15:30:26.937Z,5.87
2023-11-16T15:32:55.018Z,9.37
2023-11-16T15:35:25.993Z,6.10
2023-11-16T15:37:57.826Z,6.07
2023-11-16T15:40:26.517Z,3.83
2023-11-16T15:42:54.344Z,9.07
2023-11-16T15:45:22.042Z,8.57
2023-11-16T15:47:50.269Z,7.60
2023-11-16T15:50:17.880Z,19.83
2023-11-16T15:52:45.711Z,7.13
2023-11-16T15:55:13.536Z,10.10
2023-11-16T15:57:41.509Z,10.53
2023-11-16T16:00:12.242Z,12.40
2023-11-16T16:02:42.992Z,8.03
2023-11-16T16:05:10.686Z,10.27
2023-11-16T16:07:38.412Z,7.10
2023-11-16T16:10:06.938Z,6.10
2023-11-16T16:12:35.741Z,7.17
2023-11-16T16:15:06.432Z,6.73
2023-11-16T16:17:35.224Z,15.50
2023-11-16T16:20:04.684Z,15.80
2023-11-16T16:22:32.268Z,11.33
2023-11-16T16:24:59.902Z,8.27
2023-11-16T16:27:27.542Z,11.77
2023-11-16T16:29:55.150Z,15.60
2023-11-16T16:32:22.960Z,23.33
2023-11-16T16:34:51.310Z,13.10
2023-11-16T16:37:18.902Z,12.60
2023-11-16T16:39:46.555Z,12.80
2023-11-16T16:42:14.170Z,11.83
2023-11-16T16:44:41.763Z,14.97
2023-11-16T16:47:09.521Z,23.63
2023-11-16T16:49:37.179Z,18.83
2023-11-16T16:52:05.122Z,17.30
2023-11-16T16:54:32.952Z,11.47
2023-11-16T16:57:00.599Z,26.03
2023-11-16T16:59:28.255Z,22.10
2023-11-16T17:01:55.925Z,35.60
2023-11-16T17:04:23.658Z,28.87
2023-11-16T17:06:51.288Z,37.90
2023-11-16T17:09:18.934Z,45.73
2023-11-16T17:11:46.976Z,33.80
2023-11-16T17:14:15.375Z,17.27
2023-11-16T17:16:43.636Z,21.07
2023-11-16T17:19:11.830Z,14.80
2023-11-16T17:21:44.844Z,19.23
2023-11-16T17:26:43.934Z,18.50
2023-11-16T17:29:11.579Z,20.43
2023-11-16T17:31:39.373Z,17.53
2023-11-16T17:34:11.256Z,28.80
2023-11-16T17:36:39.144Z,19.97
2023-11-16T17:39:09.620Z,9.73
2023-11-16T17:41:37.503Z,7.93
2023-11-16T17:44:05.386Z,12.83
2023-11-16T17:46:33.089Z,16.80
2023-11-16T17:49:01.640Z,38.43
2023-11-16T17:51:29.433Z,36.00
2023-11-16T17:53:57.933Z,48.70
2023-11-16T17:56:25.586Z,29.27
2023-11-16T17:58:54.174Z,51.60
2023-11-16T18:01:22.432Z,51.50
2023-11-16T18:03:50.159Z,24.80
2023-11-16T18:06:18.663Z,38.57
2023-11-16T18:08:46.428Z,31.13
2023-11-16T18:11:14.118Z,54.53
2023-11-16T18:13:47.020Z,49.20
2023-11-16T18:16:14.779Z,40.07
2023-11-16T18:18:42.689Z,55.53
2023-11-16T18:21:10.398Z,37.07
2023-11-16T18:23:38.063Z,28.37
2023-11-16T18:26:06.805Z,31.07
2023-11-16T18:28:35.237Z,21.03
2023-11-16T18:31:03.232Z,28.37
2023-11-16T18:33:31.798Z,48.07
2023-11-16T18:36:03.097Z,43.67
2023-11-16T18:38:30.943Z,29.53
2023-11-16T18:40:59.972Z,43.70
2023-11-16T18:43:34.337Z,23.17
2023-11-16T18:46:02.069Z,20.23
2023-11-16T18:48:30.724Z,13.43
2023-11-16T18:50:58.358Z,14.47
2023-11-16T18:53:25.933Z,22.43
2023-11-16T18:55:58.979Z,19.40
2023-11-16T18:58:26.614Z,14.88
2023-11-16T19:00:54.235Z,14.23
2023-11-16T19:03:22.540Z,14.13
2023-11-16T19:05:50.180Z,11.90
2023-11-16T19:08:20.377Z,10.57
2023-11-16T19:10:48.100Z,12.00
2023-11-16T19:13:15.808Z,13.87
2023-11-16T19:15:44.619Z,13.13
2023-11-16T19:18:12.872Z,13.00
2023-11-16T19:20:40.911Z,16.80
2023-11-16T19:23:13.069Z,13.17
2023-11-16T19:25:44.379Z,14.27
2023-11-16T19:28:12.139Z,15.97
2023-11-16T19:30:39.832Z,22.23
2023-11-16T19:33:07.919Z,18.77
2023-11-16T19:35:35.920Z,16.40
2023-11-16T19:38:03.552Z,14.13
2023-11-16T19:40:38.958Z,17.10
2023-11-16T19:43:08.640Z,20.63
2023-11-16T19:45:37.974Z,14.53
2023-11-16T19:48:07.444Z,9.30
2023-11-16T19:50:38.617Z,11.20
2023-11-16T19:53:07.868Z,13.57
2023-11-16T19:55:39.386Z,12.20
2023-11-16T19:58:09.106Z,20.00
2023-11-16T20:00:39.253Z,11.77
2023-11-16T20:03:08.167Z,14.00
2023-11-16T20:05:36.277Z,10.67
2023-11-16T20:08:04.064Z,11.37
2023-11-16T20:10:37.785Z,11.23
2023-11-16T20:13:07.547Z,12.85
2023-11-16T20:15:36.037Z,10.10
2023-11-16T20:18:03.750Z,9.60
2023-11-16T20:20:36.167Z,10.87
2023-11-16T20:23:08.094Z,10.97
2023-11-16T20:25:35.824Z,17.47
2023-11-16T20:28:07.181Z,12.73
2023-11-16T20:30:34.841Z,12.70
2023-11-16T20:33:02.485Z,10.53
2023-11-16T20:35:30.149Z,9.47
2023-11-16T20:37:57.732Z,10.03
2023-11-16T20:40:25.433Z,8.30
2023-11-16T20:42:57.658Z,7.13
2023-11-16T20:45:25.615Z,8.03
2023-11-16T20:47:53.248Z,10.50
2023-11-16T20:50:21.855Z,12.20
2023-11-16T20:52:49.486Z,10.87
2023-11-16T20:56:10.265Z,10.77
2023-11-16T20:58:37.865Z,9.17
2023-11-16T21:01:07.683Z,13.40
2023-11-16T21:03:35.980Z,10.93
2023-11-16T21:06:03.846Z,9.80
2023-11-16T21:08:31.451Z,10.07
2023-11-16T21:10:59.085Z,15.83
2023-11-16T21:13:26.669Z,14.50
2023-11-16T21:15:54.405Z,17.80
2023-11-16T21:18:22.166Z,20.37
2023-11-16T21:20:49.736Z,17.37
2023-11-16T21:23:17.350Z,11.63
2023-11-16T21:25:44.979Z,10.93
2023-11-16T21:28:12.728Z,15.77
2023-11-16T21:30:40.362Z,8.47
2023-11-16T21:33:08.970Z,9.40
2023-11-16T21:35:36.616Z,10.27
2023-11-16T21:38:04.333Z,10.07
2023-11-16T21:40:33.130Z,11.57
2023-11-16T21:43:00.922Z,11.20
2023-11-16T21:45:30.181Z,27.33
2023-11-16T21:47:57.817Z,14.60
2023-11-16T21:50:26.032Z,10.27
2023-11-16T21:52:53.682Z,17.47
2023-11-16T21:55:24.428Z,13.87
2023-11-16T21:57:52.068Z,10.70
2023-11-16T22:00:19.707Z,10.57
2023-11-16T22:02:48.018Z,19.13
2023-11-16T22:05:15.893Z,12.47
2023-11-16T22:07:47.117Z,13.97
2023-11-16T22:10:19.525Z,12.50
2023-11-16T22:12:53.630Z,13.20
2023-11-16T22:15:21.710Z,8.57
2023-11-16T22:17:51.361Z,11.07
2023-11-16T22:20:19.615Z,9.67
2023-11-16T22:22:49.799Z,9.67
2023-11-16T22:25:19.130Z,9.03
2023-11-16T22:27:48.649Z,8.23
2023-11-16T22:30:18.452Z,8.97
2023-11-16T22:32:47.147Z,7.60
2023-11-16T22:35:16.608Z,7.77
2023-11-16T22:37:49.102Z,9.20
2023-11-16T22:40:20.013Z,9.30
2023-11-16T22:42:48.373Z,9.37
2023-11-16T22:45:16.080Z,6.97
2023-11-16T22:47:45.274Z,7.90
2023-11-16T22:50:15.610Z,6.40
2023-11-16T22:52:43.957Z,5.83
2023-11-16T22:55:13.849Z,4.67
2023-11-16T22:57:42.680Z,6.50
2023-11-16T23:00:18.584Z,6.93
2023-11-16T23:02:46.494Z,5.63
2023-11-16T23:05:14.712Z,5.53
2023-11-16T23:07:43.048Z,5.37
2023-11-16T23:10:11.746Z,5.80
2023-11-16T23:12:39.729Z,6.00
2023-11-16T23:15:09.644Z,9.33
2023-11-16T23:17:41.558Z,5.37
2023-11-16T23:20:11.890Z,4.60
2023-11-16T23:22:41.066Z,4.83
2023-11-16T23:25:13.609Z,5.47
2023-11-16T23:27:47.392Z,8.90
2023-11-16T23:30:15.076Z,47.53
2023-11-16T23:32:42.711Z,7.50
2023-11-16T23:35:11.088Z,11.03
2023-11-16T23:37:38.716Z,14.23
2023-11-16T23:40:07.658Z,5.77
2023-11-16T23:42:35.351Z,6.23
2023-11-16T23:45:03.302Z,4.83
2023-11-16T23:47:30.989Z,5.97
2023-11-16T23:49:59.075Z,5.77
2023-11-16T23:52:26.735Z,4.47
2023-11-16T23:54:54.609Z,5.17
2023-11-16T23:57:22.591Z,3.40
2023-11-16T23:59:50.282Z,4.73
